createdAt,value
2022-12-17T00:00:02.595Z,-5.3
2022-12-17T00:20:02.647Z,-5.2
2022-12-17T00:40:02.856Z,-5.1
2022-12-17T01:00:02.391Z,-5
2022-12-17T01:20:02.479Z,-4.9
2022-12-17T01:40:03.000Z,-5
2022-12-17T02:00:02.547Z,-4.9
2022-12-17T02:20:02.744Z,-4.9
2022-12-17T02:40:02.219Z,-4.7
2022-12-17T03:00:02.744Z,-4.6
2022-12-17T03:20:02.930Z,-4.7
2022-12-17T03:40:02.433Z,-4.6
2022-12-17T04:00:02.977Z,-4.9
2022-12-17T04:20:02.826Z,-5.2
2022-12-17T04:40:02.249Z,-5.4
2022-12-17T05:00:02.716Z,-5.4
2022-12-17T05:20:02.609Z,-5.3
2022-12-17T05:40:05.460Z,-5.3
2022-12-17T06:00:03.128Z,-5.4
2022-12-17T06:20:02.808Z,-5.7
2022-12-17T06:40:02.549Z,-5.6
2022-12-17T07:00:03.133Z,-5.6
2022-12-17T07:20:03.000Z,-5.7
2022-12-17T07:40:02.575Z,-5.7
2022-12-17T08:00:03.016Z,-5.7
2022-12-17T08:20:02.887Z,-5.7
2022-12-17T08:40:02.317Z,-5.9
2022-12-17T09:00:02.906Z,-5.9
2022-12-17T09:20:02.623Z,-5.9
2022-12-17T09:40:03.168Z,-5.8
2022-12-17T10:00:02.806Z,-5.6
2022-12-17T10:20:03.267Z,-5.5
2022-12-17T10:40:02.991Z,-5.4
2022-12-17T11:00:02.495Z,-5.3
2022-12-17T11:20:02.459Z,-5.4
2022-12-17T11:40:02.741Z,-5.3
2022-12-17T12:00:04.248Z,-5.4
2022-12-17T12:20:02.674Z,-5.4
2022-12-17T12:40:02.474Z,-5.2
2022-12-17T13:00:02.999Z,-5.1
2022-12-17T13:20:02.711Z,-5.3
2022-12-17T13:40:02.786Z,-5.1
2022-12-17T14:00:02.505Z,-5.2
2022-12-17T14:20:02.430Z,-5.2
2022-12-17T14:40:02.912Z,-5.1
2022-12-17T15:00:02.630Z,-5.2
2022-12-17T15:20:02.847Z,-5.2
2022-12-17T15:40:02.371Z,-5.2
2022-12-17T16:00:02.972Z,-5.4
2022-12-17T16:20:02.645Z,-5.4
2022-12-17T16:40:03.108Z,-5.3
2022-12-17T17:00:02.569Z,-5.4
2022-12-17T17:20:02.367Z,-5.5
2022-12-17T17:40:02.922Z,-5.7
2022-12-17T18:00:02.347Z,-5.7
2022-12-17T18:20:02.400Z,-5.7
2022-12-17T18:40:02.797Z,-5.9
2022-12-17T19:00:02.265Z,-6.1
2022-12-17T19:20:03.220Z,-6.1
2022-12-17T19:40:03.426Z,-6.4
2022-12-17T20:00:03.008Z,-6.5
2022-12-17T20:20:02.868Z,-6.5
2022-12-17T20:40:02.651Z,-6.6
2022-12-17T21:00:03.308Z,-6.9
2022-12-17T21:20:06.789Z,-6.8
2022-12-17T21:40:02.534Z,-7.1
2022-12-17T22:00:02.958Z,-7.2
2022-12-17T22:20:02.897Z,-7.4
2022-12-17T22:42:13.522Z,-7.4
2022-12-17T23:00:03.375Z,-7.6
2022-12-17T23:20:02.282Z,-7.7
2022-12-17T23:40:02.681Z,-7.8
